createdAt,value
2023-02-21T00:01:48.598Z,-20.47
2023-02-21T00:07:29.273Z,-20.29
2023-02-21T00:13:09.906Z,-20.22
2023-02-21T00:18:54.634Z,-20.29
2023-02-21T00:24:37.856Z,-20.06
2023-02-21T00:30:21.615Z,-20.11
2023-02-21T00:36:06.163Z,-20.22
2023-02-21T00:41:46.591Z,-20.61
2023-02-21T00:47:26.948Z,-20.70
2023-02-21T00:53:06.852Z,-20.67
2023-02-21T00:58:47.635Z,-20.51
2023-02-21T01:04:27.887Z,-20.56
2023-02-21T01:10:08.313Z,-20.68
2023-02-21T01:15:48.628Z,-20.69
2023-02-21T01:21:37.350Z,-20.52
2023-02-21T01:27:19.143Z,-20.24
2023-02-21T01:33:02.660Z,-19.99
2023-02-21T01:38:43.489Z,-19.81
2023-02-21T01:44:52.435Z,-19.94
2023-02-21T01:50:47.274Z,-20.17
2023-02-21T01:56:28.729Z,-20.25
2023-02-21T02:02:19.781Z,-20.16
2023-02-21T02:08:00.339Z,-20.10
2023-02-21T02:13:41.542Z,-20.05
2023-02-21T02:19:44.343Z,-20.04
2023-02-21T02:25:40.577Z,-20.04
2023-02-21T02:31:05.524Z,-19.88
2023-02-21T02:36:58.654Z,-19.67
2023-02-21T02:43:03.229Z,-19.64
2023-02-21T02:48:37.179Z,-19.54
2023-02-21T02:53:59.401Z,-19.52
2023-02-21T02:59:27.017Z,-19.15
2023-02-21T03:05:21.743Z,-18.76
2023-02-21T03:10:55.645Z,-18.53
2023-02-21T03:16:44.816Z,-18.14
2023-02-21T03:22:14.484Z,-17.89
2023-02-21T03:27:40.039Z,-17.70
2023-02-21T03:33:23.107Z,-17.64
2023-02-21T03:38:52.382Z,-17.45
2023-02-21T03:44:25.778Z,-17.43
2023-02-21T03:49:52.298Z,-17.50
2023-02-21T03:55:16.027Z,-17.34
2023-02-21T04:00:39.016Z,-17.28
2023-02-21T04:06:04.832Z,-17.24
2023-02-21T04:11:29.308Z,-17.28
2023-02-21T04:16:52.209Z,-17.21
2023-02-21T04:22:17.794Z,-17.28
2023-02-21T04:27:41.255Z,-17.16
2023-02-21T04:33:12.276Z,-17.31
2023-02-21T04:39:01.137Z,-17.24
2023-02-21T04:44:40.263Z,-17.22
2023-02-21T04:50:40.232Z,-17.37
2023-02-21T04:56:21.172Z,-17.13
2023-02-21T05:02:02.998Z,-17.25
2023-02-21T05:07:39.384Z,-17.23
2023-02-21T05:13:04.539Z,-17.11
2023-02-21T05:18:29.394Z,-16.90
2023-02-21T05:25:22.075Z,-16.83
2023-02-21T05:31:46.515Z,-16.53
2023-02-21T05:43:46.789Z,-16.34
2023-02-21T05:49:36.391Z,-16.24
2023-02-21T05:55:04.827Z,-16.28
2023-02-21T06:00:29.389Z,-16.11
2023-02-21T06:05:51.570Z,-15.91
2023-02-21T06:11:14.302Z,-15.60
2023-02-21T06:16:38.796Z,-15.20
2023-02-21T06:22:00.874Z,-15.11
2023-02-21T06:27:23.310Z,-14.96
2023-02-21T06:32:53.853Z,-14.72
2023-02-21T06:38:20.111Z,-14.34
2023-02-21T06:43:41.709Z,-14.30
2023-02-21T06:49:05.177Z,-13.99
2023-02-21T06:54:27.325Z,-13.65
2023-02-21T06:59:49.374Z,-13.57
2023-02-21T07:05:11.973Z,-13.70
2023-02-21T07:10:34.027Z,-13.85
2023-02-21T07:15:56.130Z,-13.80
2023-02-21T07:21:18.987Z,-13.83
2023-02-21T07:26:41.233Z,-13.90
2023-02-21T07:32:03.596Z,-13.77
2023-02-21T07:37:27.979Z,-13.58
2023-02-21T07:42:49.507Z,-13.73
2023-02-21T07:48:14.921Z,-13.56
2023-02-21T07:53:37.828Z,-13.59
2023-02-21T07:59:02.507Z,-13.60
2023-02-21T08:04:24.635Z,-13.50
2023-02-21T08:09:47.615Z,-13.31
2023-02-21T08:15:09.662Z,-12.99
2023-02-21T08:20:32.334Z,-12.71
2023-02-21T08:25:54.706Z,-12.72
2023-02-21T08:31:17.230Z,-12.48
2023-02-21T08:36:42.684Z,-12.68
2023-02-21T08:42:05.008Z,-12.56
2023-02-21T08:47:29.793Z,-12.70
2023-02-21T08:52:52.493Z,-12.65
2023-02-21T08:58:14.922Z,-12.56
2023-02-21T09:03:37.120Z,-12.83
2023-02-21T09:08:59.366Z,-12.58
2023-02-21T09:14:21.363Z,-12.65
2023-02-21T09:19:45.272Z,-12.53
2023-02-21T09:25:08.153Z,-12.44
2023-02-21T09:30:31.808Z,-12.62
2023-02-21T09:41:37.889Z,-12.34
2023-02-21T09:47:08.782Z,-12.12
2023-02-21T09:52:37.008Z,-12.09
2023-02-21T09:58:06.726Z,-12.03
2023-02-21T10:03:55.788Z,-11.95
2023-02-21T10:09:38.058Z,-11.84
2023-02-21T10:15:18.023Z,-11.52
2023-02-21T10:20:46.268Z,-11.34
2023-02-21T10:26:14.878Z,-11.30
2023-02-21T10:31:42.029Z,-11.51
2023-02-21T10:37:26.815Z,-11.68
2023-02-21T10:42:57.789Z,-11.71
2023-02-21T10:48:21.381Z,-11.58
2023-02-21T10:53:45.971Z,-11.54
2023-02-21T10:59:19.656Z,-11.57
2023-02-21T11:04:41.312Z,-11.66
2023-02-21T11:10:03.642Z,-11.68
2023-02-21T11:15:25.612Z,-11.44
2023-02-21T11:20:48.328Z,-11.37
2023-02-21T11:26:13.155Z,-11.30
2023-02-21T11:31:42.736Z,-11.28
2023-02-21T11:37:06.190Z,-11.50
2023-02-21T11:42:34.926Z,-11.59
2023-02-21T11:48:07.909Z,-11.65
2023-02-21T11:53:36.822Z,-11.83
2023-02-21T11:59:04.960Z,-11.95
2023-02-21T12:04:44.712Z,-11.96
2023-02-21T12:10:28.255Z,-12.19
2023-02-21T12:16:02.774Z,-12.17
2023-02-21T12:21:50.194Z,-12.39
2023-02-21T12:27:48.329Z,-12.36
2023-02-21T12:33:32.609Z,-12.34
2023-02-21T12:39:15.894Z,-12.06
2023-02-21T12:44:43.462Z,-12.09
2023-02-21T12:50:41.197Z,-11.90
2023-02-21T12:56:10.794Z,-12.21
2023-02-21T13:02:03.542Z,-11.76
2023-02-21T13:07:35.174Z,-11.67
2023-02-21T13:13:23.540Z,-11.76
2023-02-21T13:18:48.950Z,-11.56
2023-02-21T13:24:31.441Z,-11.52
2023-02-21T13:30:23.445Z,-11.95
2023-02-21T13:35:49.089Z,-11.88
2023-02-21T13:41:19.567Z,-11.87
2023-02-21T13:46:42.175Z,-11.82
2023-02-21T13:52:27.048Z,-11.77
2023-02-21T13:57:58.249Z,-11.84
2023-02-21T14:03:23.835Z,-11.84
2023-02-21T14:08:49.878Z,-11.98
2023-02-21T14:14:36.549Z,-12.25
2023-02-21T14:20:02.290Z,-12.54
2023-02-21T14:25:26.987Z,-12.60
2023-02-21T14:30:51.868Z,-12.92
2023-02-21T14:42:12.881Z,-13.08
2023-02-21T14:48:08.669Z,-13.27
2023-02-21T14:54:02.029Z,-13.26
2023-02-21T14:59:40.017Z,-13.40
2023-02-21T15:05:18.676Z,-13.40
2023-02-21T15:10:49.661Z,-13.49
2023-02-21T15:16:16.736Z,-13.57
2023-02-21T15:21:41.742Z,-13.68
2023-02-21T15:27:15.216Z,-13.70
2023-02-21T15:32:39.708Z,-13.75
2023-02-21T15:38:04.809Z,-14.10
2023-02-21T15:43:51.583Z,-13.94
2023-02-21T15:49:26.500Z,-14.23
2023-02-21T15:54:48.473Z,-14.58
2023-02-21T16:00:40.168Z,-14.59
2023-02-21T16:06:11.773Z,-14.56
2023-02-21T16:11:47.106Z,-15.07
2023-02-21T16:17:33.643Z,-14.78
2023-02-21T16:23:20.615Z,-14.96
2023-02-21T16:28:43.784Z,-15.20
2023-02-21T16:34:05.594Z,-15.14
2023-02-21T16:39:27.618Z,-15.42
2023-02-21T16:44:50.651Z,-15.35
2023-02-21T16:50:30.851Z,-15.41
2023-02-21T16:56:04.557Z,-15.35
2023-02-21T17:01:30.165Z,-15.27
2023-02-21T17:06:56.405Z,-15.12
2023-02-21T17:12:18.603Z,-15.05
2023-02-21T17:17:42.939Z,-15.02
2023-02-21T17:23:06.789Z,-14.99
2023-02-21T17:28:28.492Z,-14.95
2023-02-21T17:33:50.696Z,-15.03
2023-02-21T17:39:17.326Z,-15.17
2023-02-21T17:44:44.371Z,-15.27
2023-02-21T17:50:07.238Z,-14.95
2023-02-21T17:55:32.737Z,-15.11
2023-02-21T18:00:55.834Z,-15.04
2023-02-21T18:06:18.685Z,-14.81
2023-02-21T18:11:40.799Z,-14.52
2023-02-21T18:17:03.306Z,-14.64
2023-02-21T18:22:25.809Z,-14.25
2023-02-21T18:27:47.903Z,-13.97
2023-02-21T18:33:10.211Z,-13.93
2023-02-21T18:38:32.063Z,-13.79
2023-02-21T18:43:54.331Z,-13.82
2023-02-21T18:49:16.589Z,-13.68
2023-02-21T18:54:47.696Z,-13.70
2023-02-21T19:00:11.836Z,-13.69
2023-02-21T19:05:34.955Z,-13.65
2023-02-21T19:10:56.771Z,-13.47
2023-02-21T19:16:21.197Z,-13.49
2023-02-21T19:21:43.518Z,-13.52
2023-02-21T19:27:07.539Z,-13.48
2023-02-21T19:32:30.032Z,-13.62
2023-02-21T19:37:52.261Z,-13.41
2023-02-21T19:43:15.206Z,-13.40
2023-02-21T19:48:37.574Z,-13.44
2023-02-21T19:53:59.790Z,-13.38
2023-02-21T19:59:22.671Z,-13.46
2023-02-21T20:04:44.464Z,-13.49
2023-02-21T20:10:06.611Z,-13.41
2023-02-21T20:15:29.030Z,-13.38
2023-02-21T20:20:50.624Z,-13.53
2023-02-21T20:26:13.680Z,-13.53
2023-02-21T20:31:38.083Z,-13.58
2023-02-21T20:37:00.370Z,-13.82
2023-02-21T20:42:23.408Z,-13.79
2023-02-21T20:47:45.627Z,-13.90
2023-02-21T20:53:10.287Z,-14.04
2023-02-21T20:58:33.191Z,-14.11
2023-02-21T21:03:57.590Z,-14.03
2023-02-21T21:09:29.378Z,-14.10
2023-02-21T21:14:56.090Z,-13.97
2023-02-21T21:20:21.412Z,-14.06
2023-02-21T21:25:43.483Z,-14.09
2023-02-21T21:31:09.494Z,-14.25
2023-02-21T21:36:32.247Z,-14.36
2023-02-21T21:41:59.170Z,-14.41
2023-02-21T21:47:26.801Z,-14.53
2023-02-21T21:52:59.002Z,-14.71
2023-02-21T21:58:21.182Z,-14.79
2023-02-21T22:03:42.958Z,-14.99
2023-02-21T22:09:06.213Z,-15.01
2023-02-21T22:14:28.591Z,-15.09
2023-02-21T22:19:51.090Z,-15.14
2023-02-21T22:25:14.301Z,-15.12
2023-02-21T22:30:40.366Z,-15.18
2023-02-21T22:36:02.949Z,-15.17
2023-02-21T22:41:32.428Z,-15.18
2023-02-21T22:46:58.951Z,-15.23
2023-02-21T22:52:21.152Z,-15.31
2023-02-21T22:57:44.433Z,-15.39
2023-02-21T23:03:18.468Z,-15.42
2023-02-21T23:08:41.328Z,-15.58
2023-02-21T23:14:03.339Z,-15.59
2023-02-21T23:19:27.484Z,-15.65
2023-02-21T23:24:49.771Z,-15.72
2023-02-21T23:30:11.970Z,-15.79
2023-02-21T23:35:35.593Z,-16.00
2023-02-21T23:41:00.320Z,-16.15
2023-02-21T23:46:29.901Z,-16.18
2023-02-21T23:51:54.120Z,-16.27
2023-02-21T23:57:17.316Z,-16.29
